createdAt,value
2019-05-22T00:00:00.704Z,13.13
2019-05-22T00:02:41.041Z,12.85
2019-05-22T00:05:30.858Z,13.62
2019-05-22T00:08:00.229Z,13.43
2019-05-22T00:10:33.366Z,13.95
2019-05-22T00:13:02.724Z,14.32
2019-05-22T00:15:34.536Z,15.88
2019-05-22T00:18:04.958Z,14.73
2019-05-22T00:20:34.595Z,16.05
2019-05-22T00:23:05.058Z,15.30
2019-05-22T00:25:35.492Z,17.05
2019-05-22T00:28:05.011Z,15.85
2019-05-22T00:30:35.315Z,16.05
2019-05-22T00:33:04.043Z,17.08
2019-05-22T00:35:33.314Z,19.85
2019-05-22T00:38:04.363Z,16.70
2019-05-22T00:40:34.623Z,15.38
2019-05-22T00:43:10.774Z,15.80
2019-05-22T00:45:34.693Z,14.32
2019-05-22T00:48:05.141Z,13.45
2019-05-22T00:50:41.431Z,13.27
2019-05-22T00:53:29.769Z,12.65
2019-05-22T00:56:20.788Z,12.70
2019-05-22T00:58:54.937Z,12.15
2019-05-22T01:01:39.942Z,12.90
2019-05-22T01:04:13.465Z,11.95
2019-05-22T01:06:42.661Z,12.52
2019-05-22T01:09:19.289Z,12.80
2019-05-22T01:11:50.517Z,11.93
2019-05-22T01:14:19.687Z,12.60
2019-05-22T01:16:49.627Z,12.37
2019-05-22T01:19:20.428Z,11.75
2019-05-22T01:21:51.053Z,13.68
2019-05-22T01:24:20.753Z,13.55
2019-05-22T01:26:52.280Z,13.77
2019-05-22T01:29:21.917Z,15.27
2019-05-22T01:31:52.816Z,13.55
2019-05-22T01:34:26.758Z,13.85
2019-05-22T01:37:02.751Z,13.32
2019-05-22T01:39:51.112Z,14.00
2019-05-22T01:42:24.300Z,12.15
2019-05-22T01:45:04.225Z,13.48
2019-05-22T01:47:47.295Z,12.82
2019-05-22T01:50:17.795Z,14.83
2019-05-22T01:52:48.747Z,12.68
2019-05-22T01:55:20.018Z,11.60
2019-05-22T01:57:52.221Z,11.80
2019-05-22T02:00:23.187Z,11.55
2019-05-22T02:02:55.673Z,11.52
2019-05-22T02:05:27.099Z,10.07
2019-05-22T02:07:56.516Z,10.95
2019-05-22T02:10:27.691Z,10.02
2019-05-22T02:12:59.008Z,9.27
2019-05-22T02:15:29.396Z,9.30
2019-05-22T02:18:00.438Z,9.80
2019-05-22T02:20:29.979Z,9.63
2019-05-22T02:22:59.118Z,10.85
2019-05-22T02:25:30.497Z,13.02
2019-05-22T02:27:58.755Z,14.18
2019-05-22T02:30:28.317Z,13.95
2019-05-22T02:32:59.186Z,17.00
2019-05-22T02:35:30.256Z,17.77
2019-05-22T02:38:00.213Z,19.10
2019-05-22T02:40:31.578Z,19.02
2019-05-22T02:43:00.614Z,20.27
2019-05-22T02:45:30.605Z,20.42
2019-05-22T02:48:00.019Z,20.23
2019-05-22T02:50:31.860Z,18.25
2019-05-22T02:53:02.710Z,20.20
2019-05-22T02:55:31.889Z,20.20
2019-05-22T02:58:00.702Z,19.83
2019-05-22T03:00:31.169Z,20.08
2019-05-22T03:03:02.131Z,19.02
2019-05-22T03:05:44.460Z,18.60
2019-05-22T03:08:13.127Z,16.17
2019-05-22T03:10:45.595Z,13.52
2019-05-22T03:13:15.644Z,12.27
2019-05-22T03:15:44.847Z,10.77
2019-05-22T03:18:14.065Z,10.75
2019-05-22T03:20:45.144Z,10.55
2019-05-22T03:23:34.259Z,11.40
2019-05-22T03:26:04.996Z,11.40
2019-05-22T03:28:36.649Z,13.25
2019-05-22T03:31:10.348Z,12.45
2019-05-22T03:33:40.505Z,12.93
2019-05-22T03:36:10.140Z,14.32
2019-05-22T03:38:40.881Z,12.73
2019-05-22T03:41:09.289Z,14.25
2019-05-22T03:43:39.588Z,13.05
2019-05-22T03:46:23.037Z,14.73
2019-05-22T03:48:52.973Z,16.93
2019-05-22T03:51:24.568Z,15.68
2019-05-22T03:53:54.030Z,14.98
2019-05-22T03:56:24.290Z,14.40
2019-05-22T03:58:53.963Z,14.93
2019-05-22T04:01:23.906Z,13.38
2019-05-22T04:03:53.394Z,14.27
2019-05-22T04:06:24.048Z,12.00
2019-05-22T04:08:54.367Z,10.95
2019-05-22T04:11:25.335Z,9.60
2019-05-22T04:13:54.774Z,9.82
2019-05-22T04:16:25.772Z,8.38
2019-05-22T04:18:55.605Z,7.93
2019-05-22T04:21:24.967Z,8.05
2019-05-22T04:23:55.426Z,7.80
2019-05-22T04:26:24.210Z,8.77
2019-05-22T04:28:55.663Z,9.05
2019-05-22T04:31:34.958Z,11.35
2019-05-22T04:34:04.259Z,11.90
2019-05-22T04:36:33.899Z,12.02
2019-05-22T04:39:03.026Z,12.57
2019-05-22T04:41:33.269Z,12.50
2019-05-22T04:44:03.617Z,13.30
2019-05-22T04:46:33.675Z,12.52
2019-05-22T04:49:03.749Z,14.68
2019-05-22T04:51:34.616Z,15.07
2019-05-22T04:54:04.896Z,13.75
2019-05-22T04:56:35.421Z,13.85
2019-05-22T04:59:04.501Z,13.50
2019-05-22T05:01:33.747Z,13.82
2019-05-22T05:04:02.567Z,13.82
2019-05-22T05:06:32.066Z,13.35
2019-05-22T05:09:01.457Z,13.70
2019-05-22T05:11:31.229Z,13.88
2019-05-22T05:14:01.163Z,15.18
2019-05-22T05:16:30.628Z,14.82
2019-05-22T05:19:00.206Z,15.27
2019-05-22T05:21:29.504Z,14.82
2019-05-22T05:24:00.925Z,15.77
2019-05-22T05:26:30.402Z,15.68
2019-05-22T05:29:01.122Z,15.82
2019-05-22T05:31:29.662Z,15.20
2019-05-22T05:34:11.808Z,13.77
2019-05-22T05:36:40.589Z,16.05
2019-05-22T05:39:10.715Z,14.48
2019-05-22T05:41:41.034Z,13.52
2019-05-22T05:44:11.818Z,11.60
2019-05-22T05:46:41.606Z,13.02
2019-05-22T05:49:11.427Z,12.37
2019-05-22T05:51:46.283Z,11.73
2019-05-22T05:54:16.223Z,11.32
2019-05-22T05:56:46.143Z,11.55
2019-05-22T05:59:17.855Z,11.05
2019-05-22T06:01:51.318Z,10.23
2019-05-22T06:04:34.119Z,10.48
2019-05-22T06:07:14.673Z,9.60
2019-05-22T06:09:44.538Z,9.82
2019-05-22T06:12:13.551Z,7.57
2019-05-22T06:14:43.116Z,8.23
2019-05-22T06:17:33.168Z,7.20
2019-05-22T06:20:05.835Z,6.25
2019-05-22T06:22:35.953Z,7.18
2019-05-22T06:25:06.115Z,7.90
2019-05-22T06:27:40.019Z,7.60
2019-05-22T06:30:10.432Z,7.95
2019-05-22T06:32:58.281Z,7.37
2019-05-22T06:35:27.766Z,7.75
2019-05-22T06:38:00.219Z,8.50
2019-05-22T06:40:30.094Z,8.38
2019-05-22T06:43:24.138Z,8.15
2019-05-22T06:45:53.324Z,7.68
2019-05-22T06:48:23.887Z,7.50
2019-05-22T06:50:53.298Z,5.87
2019-05-22T06:53:24.232Z,5.72
2019-05-22T06:55:54.753Z,6.10
2019-05-22T06:58:25.268Z,5.68
2019-05-22T07:00:55.538Z,5.57
2019-05-22T07:03:25.409Z,6.07
2019-05-22T07:05:56.168Z,5.90
2019-05-22T07:08:26.752Z,6.80
2019-05-22T07:10:56.675Z,7.15
2019-05-22T07:13:27.364Z,6.37
2019-05-22T07:15:56.770Z,6.80
2019-05-22T07:18:26.330Z,6.78
2019-05-22T07:20:56.029Z,6.03
2019-05-22T07:23:29.333Z,6.87
2019-05-22T07:26:02.088Z,6.80
2019-05-22T07:28:30.228Z,6.78
2019-05-22T07:30:59.535Z,6.50
2019-05-22T07:33:30.047Z,7.65
2019-05-22T07:36:16.980Z,6.82
2019-05-22T07:38:30.417Z,6.28
2019-05-22T07:41:01.217Z,6.12
2019-05-22T07:43:30.687Z,6.15
2019-05-22T07:45:59.989Z,6.43
2019-05-22T07:48:29.603Z,5.68
2019-05-22T07:51:00.626Z,5.90
2019-05-22T07:53:30.196Z,6.55
2019-05-22T07:56:00.172Z,6.22
2019-05-22T07:58:29.419Z,6.97
2019-05-22T08:01:00.322Z,7.55
2019-05-22T08:03:29.199Z,7.28
2019-05-22T08:05:58.715Z,7.03
2019-05-22T08:08:29.396Z,6.35
2019-05-22T08:10:58.234Z,5.90
2019-05-22T08:13:28.132Z,5.25
2019-05-22T08:15:58.902Z,6.28
2019-05-22T08:18:28.560Z,6.72
2019-05-22T08:20:56.901Z,6.50
2019-05-22T08:23:28.899Z,6.40
2019-05-22T08:25:58.736Z,7.03
2019-05-22T08:28:27.754Z,6.87
2019-05-22T08:30:58.036Z,6.70
2019-05-22T08:33:27.478Z,7.90
2019-05-22T08:35:56.846Z,8.00
2019-05-22T08:38:28.257Z,7.53
2019-05-22T08:40:57.736Z,6.95
2019-05-22T08:43:26.515Z,7.22
2019-05-22T08:45:57.214Z,7.70
2019-05-22T08:48:27.149Z,7.68
2019-05-22T08:50:57.092Z,7.55
2019-05-22T08:53:26.769Z,6.70
2019-05-22T08:55:57.518Z,6.97
2019-05-22T08:58:26.874Z,6.75
2019-05-22T09:00:58.008Z,6.12
2019-05-22T09:03:27.986Z,5.70
2019-05-22T09:05:56.746Z,6.57
2019-05-22T09:08:25.689Z,6.85
2019-05-22T09:10:54.676Z,7.07
2019-05-22T09:13:23.536Z,8.20
2019-05-22T09:15:52.361Z,8.60
2019-05-22T09:18:21.648Z,7.55
2019-05-22T09:20:52.244Z,7.95
2019-05-22T09:23:22.017Z,7.50
2019-05-22T09:25:51.231Z,7.22
2019-05-22T09:28:21.704Z,7.37
2019-05-22T09:30:50.826Z,6.87
2019-05-22T09:33:19.848Z,7.03
2019-05-22T09:35:49.800Z,7.28
2019-05-22T09:38:20.331Z,7.07
2019-05-22T09:40:49.714Z,7.68
2019-05-22T09:43:20.805Z,8.70
2019-05-22T09:45:50.590Z,7.87
2019-05-22T09:48:21.726Z,8.55
2019-05-22T09:50:51.549Z,7.72
2019-05-22T09:53:22.244Z,7.00
2019-05-22T09:55:53.691Z,7.10
2019-05-22T09:58:23.737Z,8.20
2019-05-22T10:00:53.072Z,7.87
2019-05-22T10:03:22.197Z,7.12
2019-05-22T10:05:54.639Z,8.07
2019-05-22T10:08:23.271Z,7.37
2019-05-22T10:10:54.163Z,7.53
2019-05-22T10:13:22.561Z,8.38
2019-05-22T10:15:52.455Z,7.55
2019-05-22T10:18:21.948Z,8.63
2019-05-22T10:20:51.680Z,8.57
2019-05-22T10:23:20.822Z,7.97
2019-05-22T10:25:51.692Z,8.10
2019-05-22T10:28:21.402Z,8.52
2019-05-22T10:30:50.788Z,10.00
2019-05-22T10:33:20.768Z,10.00
2019-05-22T10:35:50.608Z,8.70
2019-05-22T10:38:20.773Z,8.90
2019-05-22T10:40:51.381Z,9.77
2019-05-22T10:43:21.085Z,8.32
2019-05-22T10:45:51.396Z,9.48
2019-05-22T10:48:20.897Z,11.07
2019-05-22T10:50:50.361Z,9.60
2019-05-22T10:53:32.878Z,8.90
2019-05-22T10:55:55.157Z,8.82
2019-05-22T10:58:26.435Z,8.23
2019-05-22T11:00:57.094Z,9.80
2019-05-22T11:03:28.141Z,10.05
2019-05-22T11:06:07.086Z,10.25
2019-05-22T11:08:30.342Z,9.13
2019-05-22T11:10:56.908Z,9.32
2019-05-22T11:13:26.132Z,9.63
2019-05-22T11:15:56.309Z,9.60
2019-05-22T11:18:25.491Z,10.77
2019-05-22T11:20:54.788Z,9.55
2019-05-22T11:23:24.635Z,11.07
2019-05-22T11:25:54.022Z,10.60
2019-05-22T11:28:24.004Z,10.30
2019-05-22T11:30:56.892Z,11.73
2019-05-22T11:33:26.684Z,10.82
2019-05-22T11:35:56.734Z,10.52
2019-05-22T11:38:25.702Z,10.52
2019-05-22T11:40:55.334Z,9.57
2019-05-22T11:43:24.203Z,10.20
2019-05-22T11:48:45.076Z,10.13
2019-05-22T11:51:14.292Z,11.48
2019-05-22T11:53:43.720Z,10.75
2019-05-22T11:56:12.475Z,11.73
2019-05-22T11:58:43.064Z,10.48
2019-05-22T12:01:13.774Z,10.50
2019-05-22T12:03:44.402Z,10.80
2019-05-22T12:06:15.474Z,9.98
2019-05-22T12:08:44.434Z,9.70
2019-05-22T12:11:15.401Z,11.15
2019-05-22T12:13:44.129Z,9.82
2019-05-22T12:16:13.561Z,11.27
2019-05-22T12:18:44.437Z,10.40
2019-05-22T12:21:14.499Z,9.65
2019-05-22T12:23:43.269Z,9.55
2019-05-22T12:26:13.391Z,10.13
2019-05-22T12:28:43.311Z,10.68
2019-05-22T12:31:14.209Z,8.68
2019-05-22T12:33:44.311Z,9.57
2019-05-22T12:36:15.369Z,8.30
2019-05-22T12:38:45.696Z,9.77
2019-05-22T12:41:14.431Z,8.57
2019-05-22T12:43:45.203Z,7.97
2019-05-22T12:46:13.760Z,8.70
2019-05-22T12:48:45.117Z,10.70
2019-05-22T12:51:15.557Z,8.45
2019-05-22T12:53:47.047Z,8.15
2019-05-22T12:56:17.773Z,7.37
2019-05-22T12:58:48.667Z,9.70
2019-05-22T13:01:19.557Z,7.05
2019-05-22T13:03:49.742Z,6.72
2019-05-22T13:06:20.867Z,5.60
2019-05-22T13:08:51.947Z,5.95
2019-05-22T13:11:21.052Z,5.78
2019-05-22T13:13:50.244Z,5.93
2019-05-22T13:16:19.569Z,6.85
2019-05-22T13:18:48.908Z,6.47
2019-05-22T13:21:19.660Z,6.82
2019-05-22T13:23:49.474Z,6.10
2019-05-22T13:26:18.990Z,6.45
2019-05-22T13:28:50.650Z,6.53
2019-05-22T13:31:21.244Z,6.22
2019-05-22T13:33:52.492Z,6.03
2019-05-22T13:36:22.236Z,5.80
2019-05-22T13:38:51.060Z,5.55
2019-05-22T13:41:21.170Z,6.30
2019-05-22T13:43:51.672Z,6.62
2019-05-22T13:46:20.618Z,7.32
2019-05-22T13:48:48.896Z,7.37
2019-05-22T13:51:17.743Z,7.45
2019-05-22T13:53:46.644Z,8.55
2019-05-22T13:56:16.046Z,7.82
2019-05-22T13:58:44.910Z,7.20
2019-05-22T14:01:14.895Z,8.65
2019-05-22T14:03:43.878Z,8.13
2019-05-22T14:06:15.162Z,8.05
2019-05-22T14:08:44.678Z,9.68
2019-05-22T14:11:14.337Z,9.45
2019-05-22T14:13:44.673Z,9.63
2019-05-22T14:16:15.791Z,8.10
2019-05-22T14:18:45.103Z,9.18
2019-05-22T14:21:14.488Z,9.43
2019-05-22T14:23:44.314Z,9.60
2019-05-22T14:26:12.780Z,10.20
2019-05-22T14:28:42.360Z,9.88
2019-05-22T14:31:11.641Z,10.75
2019-05-22T14:33:41.021Z,9.75
2019-05-22T14:36:12.080Z,11.15
2019-05-22T14:38:42.081Z,10.32
2019-05-22T14:41:11.627Z,12.18
2019-05-22T14:43:42.391Z,12.57
2019-05-22T14:46:12.681Z,14.27
2019-05-22T14:48:41.570Z,16.55
2019-05-22T14:51:11.855Z,16.70
2019-05-22T14:53:42.476Z,16.65
2019-05-22T14:56:12.777Z,17.02
2019-05-22T14:58:42.550Z,16.33
2019-05-22T15:01:11.595Z,17.08
2019-05-22T15:03:41.905Z,15.98
2019-05-22T15:06:11.950Z,16.75
2019-05-22T15:08:41.144Z,17.83
2019-05-22T15:11:10.119Z,15.65
2019-05-22T15:13:39.332Z,13.80
2019-05-22T15:16:08.664Z,12.68
2019-05-22T15:18:38.856Z,14.18
2019-05-22T15:21:09.472Z,12.32
2019-05-22T15:23:38.860Z,11.50
2019-05-22T15:26:09.155Z,12.95
2019-05-22T15:28:39.908Z,13.95
2019-05-22T15:31:11.208Z,14.40
2019-05-22T15:33:40.607Z,14.63
2019-05-22T15:36:10.178Z,12.48
2019-05-22T15:38:42.815Z,10.55
2019-05-22T15:41:14.041Z,10.23
2019-05-22T15:43:44.528Z,10.23
2019-05-22T15:46:17.286Z,11.20
2019-05-22T15:48:50.300Z,8.70
2019-05-22T15:51:21.740Z,8.65
2019-05-22T15:53:52.999Z,7.85
2019-05-22T15:56:23.236Z,7.97
2019-05-22T15:58:53.758Z,7.72
2019-05-22T16:01:23.347Z,7.43
2019-05-22T16:03:52.712Z,7.05
2019-05-22T16:06:22.136Z,6.32
2019-05-22T16:08:52.383Z,7.65
2019-05-22T16:11:21.903Z,7.57
2019-05-22T16:13:50.717Z,9.65
2019-05-22T16:16:20.921Z,9.73
2019-05-22T16:18:51.044Z,10.40
2019-05-22T16:21:19.943Z,10.35
2019-05-22T16:23:48.816Z,11.05
2019-05-22T16:26:19.087Z,10.52
2019-05-22T16:28:49.339Z,11.20
2019-05-22T16:31:17.624Z,9.75
2019-05-22T16:33:47.127Z,10.25
2019-05-22T16:36:17.221Z,10.25
2019-05-22T16:38:47.551Z,9.82
2019-05-22T16:41:18.379Z,9.75
2019-05-22T16:43:50.474Z,9.25
2019-05-22T16:46:19.843Z,8.80
2019-05-22T16:48:50.382Z,9.93
2019-05-22T16:51:20.590Z,10.38
2019-05-22T16:53:50.731Z,10.75
2019-05-22T16:56:20.979Z,9.55
2019-05-22T16:58:51.032Z,9.05
2019-05-22T17:01:20.552Z,7.90
2019-05-22T17:03:51.021Z,8.63
2019-05-22T17:06:20.361Z,6.87
2019-05-22T17:08:49.889Z,6.28
2019-05-22T17:11:18.811Z,5.57
2019-05-22T17:13:48.834Z,5.85
2019-05-22T17:16:18.711Z,6.18
2019-05-22T17:18:48.970Z,5.80
2019-05-22T17:21:16.802Z,6.70
2019-05-22T17:23:46.986Z,6.25
2019-05-22T17:26:15.791Z,5.90
2019-05-22T17:28:45.172Z,6.90
2019-05-22T17:31:17.516Z,7.00
2019-05-22T17:33:47.763Z,6.45
2019-05-22T17:36:17.892Z,6.68
2019-05-22T17:38:50.268Z,7.80
2019-05-22T17:41:20.547Z,8.18
2019-05-22T17:43:50.699Z,8.30
2019-05-22T17:46:20.609Z,8.25
2019-05-22T17:48:49.276Z,8.93
2019-05-22T17:51:20.099Z,7.30
2019-05-22T17:53:48.908Z,7.62
2019-05-22T17:56:18.464Z,8.75
2019-05-22T17:58:48.138Z,7.18
2019-05-22T18:01:17.312Z,6.80
2019-05-22T18:03:46.340Z,6.45
2019-05-22T18:06:17.109Z,5.62
2019-05-22T18:08:45.791Z,5.07
2019-05-22T18:11:14.575Z,5.20
2019-05-22T18:13:57.536Z,5.32
2019-05-22T18:16:27.842Z,5.47
2019-05-22T18:18:56.664Z,5.20
2019-05-22T18:21:27.497Z,6.32
2019-05-22T18:23:58.304Z,7.37
2019-05-22T18:26:28.334Z,7.97
2019-05-22T18:28:57.084Z,8.57
2019-05-22T18:31:26.916Z,7.37
2019-05-22T18:33:57.177Z,6.97
2019-05-22T18:36:27.817Z,7.12
2019-05-22T18:38:58.440Z,6.20
2019-05-22T18:41:29.115Z,4.97
2019-05-22T18:44:00.842Z,5.10
2019-05-22T18:46:32.465Z,4.80
2019-05-22T18:49:02.283Z,5.22
2019-05-22T18:51:31.450Z,5.28
2019-05-22T18:53:59.950Z,4.70
2019-05-22T18:56:28.587Z,4.68
2019-05-22T18:58:57.323Z,5.53
2019-05-22T19:01:26.908Z,5.25
2019-05-22T19:03:56.110Z,5.70
2019-05-22T19:06:30.667Z,5.62
2019-05-22T19:08:55.927Z,5.78
2019-05-22T19:11:25.811Z,6.07
2019-05-22T19:13:54.657Z,5.53
2019-05-22T19:16:24.714Z,6.07
2019-05-22T19:18:54.648Z,6.05
2019-05-22T19:21:43.449Z,5.45
2019-05-22T19:24:11.619Z,6.05
2019-05-22T19:26:41.883Z,6.00
2019-05-22T19:29:11.299Z,6.40
2019-05-22T19:31:42.385Z,5.80
2019-05-22T19:34:12.205Z,6.20
2019-05-22T19:36:41.503Z,6.47
2019-05-22T19:39:10.739Z,5.25
2019-05-22T19:41:38.960Z,6.40
2019-05-22T19:44:07.252Z,6.35
2019-05-22T19:46:38.670Z,6.93
2019-05-22T19:49:07.896Z,6.55
2019-05-22T19:51:37.458Z,6.82
2019-05-22T19:54:07.307Z,6.45
2019-05-22T19:56:36.591Z,6.37
2019-05-22T19:59:07.349Z,6.80
2019-05-22T20:01:36.583Z,6.68
2019-05-22T20:04:08.471Z,6.40
2019-05-22T20:06:38.417Z,7.18
2019-05-22T20:09:07.783Z,6.82
2019-05-22T20:11:37.472Z,6.03
2019-05-22T20:14:07.560Z,5.40
2019-05-22T20:16:36.268Z,6.90
2019-05-22T20:19:04.519Z,5.45
2019-05-22T20:21:34.282Z,6.50
2019-05-22T20:24:04.537Z,6.90
2019-05-22T20:26:33.765Z,5.78
2019-05-22T20:29:04.239Z,6.50
2019-05-22T20:31:35.816Z,6.10
2019-05-22T20:34:05.540Z,6.00
2019-05-22T20:36:35.988Z,6.72
2019-05-22T20:39:05.209Z,6.30
2019-05-22T20:41:34.481Z,5.87
2019-05-22T20:44:06.039Z,5.70
2019-05-22T20:46:37.992Z,6.30
2019-05-22T20:49:06.170Z,6.10
2019-05-22T20:51:37.381Z,6.70
2019-05-22T20:54:08.617Z,6.77
2019-05-22T20:56:38.158Z,5.07
2019-05-22T20:59:09.548Z,6.40
2019-05-22T21:01:40.205Z,6.12
2019-05-22T21:04:10.606Z,7.37
2019-05-22T21:06:42.079Z,7.35
2019-05-22T21:09:12.398Z,7.15
2019-05-22T21:11:40.596Z,7.68
2019-05-22T21:14:11.711Z,7.82
2019-05-22T21:16:41.232Z,7.43
2019-05-22T21:19:10.389Z,6.53
2019-05-22T21:21:39.158Z,6.90
2019-05-22T21:24:12.379Z,6.78
2019-05-22T21:26:39.919Z,6.87
2019-05-22T21:29:10.579Z,5.90
2019-05-22T21:31:39.957Z,6.90
2019-05-22T21:34:09.267Z,6.65
2019-05-22T21:36:39.607Z,6.53
2019-05-22T21:39:11.634Z,7.00
2019-05-22T21:41:40.916Z,6.78
2019-05-22T21:44:11.047Z,6.55
2019-05-22T21:46:40.567Z,7.00
2019-05-22T21:49:10.035Z,7.28
2019-05-22T21:51:39.695Z,7.93
2019-05-22T21:54:09.476Z,9.05
2019-05-22T21:56:39.978Z,7.47
2019-05-22T21:59:09.142Z,9.70
2019-05-22T22:01:42.881Z,9.32
2019-05-22T22:04:28.805Z,9.82
2019-05-22T22:06:58.208Z,9.30
2019-05-22T22:09:28.401Z,9.18
2019-05-22T22:11:57.988Z,8.75
2019-05-22T22:14:27.825Z,7.87
2019-05-22T22:16:57.597Z,9.80
2019-05-22T22:19:26.787Z,8.05
2019-05-22T22:21:55.845Z,8.57
2019-05-22T22:24:24.249Z,8.00
2019-05-22T22:26:54.110Z,7.12
2019-05-22T22:29:23.907Z,7.18
2019-05-22T22:31:53.525Z,7.28
2019-05-22T22:34:24.910Z,8.13
2019-05-22T22:36:54.168Z,7.12
2019-05-22T22:39:23.811Z,8.10
2019-05-22T22:41:53.790Z,7.93
2019-05-22T22:44:23.119Z,8.48
2019-05-22T22:46:58.642Z,8.18
2019-05-22T22:49:31.929Z,7.10
2019-05-22T22:52:01.987Z,7.72
2019-05-22T22:54:31.211Z,7.93
2019-05-22T22:57:00.994Z,7.25
2019-05-22T22:59:32.190Z,7.90
2019-05-22T23:02:02.132Z,8.95
2019-05-22T23:04:31.817Z,8.43
2019-05-22T23:07:01.507Z,8.90
2019-05-22T23:09:31.665Z,8.35
2019-05-22T23:12:01.074Z,7.00
2019-05-22T23:14:29.627Z,7.57
2019-05-22T23:17:00.099Z,8.50
2019-05-22T23:19:35.398Z,8.93
2019-05-22T23:22:05.563Z,12.10
2019-05-22T23:24:35.817Z,8.50
2019-05-22T23:27:06.160Z,7.62
2019-05-22T23:29:34.822Z,7.18
2019-05-22T23:32:04.215Z,8.10
2019-05-22T23:34:34.319Z,8.55
2019-05-22T23:37:03.662Z,8.05
2019-05-22T23:39:34.792Z,7.93
2019-05-22T23:42:06.716Z,8.43
2019-05-22T23:44:37.241Z,7.62
2019-05-22T23:47:06.445Z,7.55
2019-05-22T23:49:35.337Z,7.20
2019-05-22T23:52:04.582Z,6.87
2019-05-22T23:54:34.322Z,7.72
2019-05-22T23:57:04.403Z,7.15
2019-05-22T23:59:34.040Z,7.40
